Terminal Aerodrome Forecast
Issued by NWS

Home | Current Version | Previous Version | Text Only | Print | Product List | Glossary On
Versions: 1 2 3 4 5 6 7 8 9 10 11 12 13 14 15 16 17 18
000
FTUS43 KGRB 231700
TAFATW
TAF
KATW 231722Z 2318/2418 19008G16KT P6SM BKN040
     FM231900 19009KT 6SM -SHRA BKN025 OVC040
      TEMPO 2319/2323 3SM -SHRA BR BKN025
     FM232300 19006KT 4SM -SHRA BR OVC015
     FM240100 24004KT 4SM BR BKN012
     FM240800 VRB03KT 3/4SM BR SCT003
     FM241400 24003KT 5SM BR BKN008=

USA.gov is the U.S. government's official web portal to all federal, state and local government web resources and services.